createdAt,value
2022-08-03T00:00:44.736Z,99000.53
2022-08-03T00:03:29.999Z,99009.13
2022-08-03T00:06:15.074Z,99010.44
2022-08-03T00:09:00.129Z,99008.63
2022-08-03T00:11:45.164Z,99013.06
2022-08-03T00:14:30.303Z,99018.56
2022-08-03T00:17:15.173Z,99020.66
2022-08-03T00:20:00.391Z,99022.22
2022-08-03T00:22:45.192Z,99026.63
2022-08-03T00:25:30.632Z,99016.19
2022-08-03T00:28:15.605Z,99020.13
2022-08-03T00:31:00.497Z,99020.16
2022-08-03T00:33:58.761Z,99017.06
2022-08-03T00:36:45.162Z,99021.44
2022-08-03T00:39:30.063Z,99031.53
2022-08-03T00:42:15.541Z,99032.22
2022-08-03T00:45:00.668Z,99030.31
2022-08-03T00:47:45.622Z,99024.53
2022-08-03T00:50:34.045Z,99023.88
2022-08-03T00:53:19.210Z,99026.66
2022-08-03T00:56:04.450Z,99032.31
2022-08-03T00:58:50.234Z,99030.94
2022-08-03T01:01:35.067Z,99018.88
2022-08-03T01:04:19.833Z,99023.75
2022-08-03T01:07:25.185Z,99018.00
2022-08-03T01:10:10.208Z,99024.75
2022-08-03T01:13:07.508Z,99021.66
2022-08-03T01:16:22.655Z,99019.13
2022-08-03T01:19:39.800Z,99021.75
2022-08-03T01:23:01.760Z,99016.13
2022-08-03T01:26:03.665Z,99019.34
2022-08-03T01:29:04.117Z,99013.91
2022-08-03T01:32:58.899Z,99017.88
2022-08-03T01:35:12.126Z,99013.25
2022-08-03T01:38:09.450Z,99017.16
2022-08-03T01:40:56.128Z,99016.16
2022-08-03T01:43:55.388Z,99016.44
2022-08-03T01:46:50.911Z,99019.31
2022-08-03T01:49:40.105Z,99012.03
2022-08-03T01:52:26.301Z,99013.13
2022-08-03T01:55:13.077Z,99010.28
2022-08-03T01:58:05.920Z,99009.78
2022-08-03T02:00:57.437Z,99018.91
2022-08-03T02:03:59.526Z,99021.28
2022-08-03T02:07:02.856Z,99013.75
2022-08-03T02:09:50.959Z,99013.78
2022-08-03T02:12:37.875Z,99015.63
2022-08-03T02:15:23.817Z,99010.16
2022-08-03T02:18:10.966Z,99019.31
2022-08-03T02:20:55.801Z,99019.34
2022-08-03T02:23:40.936Z,99015.47
2022-08-03T02:26:28.932Z,99019.16
2022-08-03T02:29:19.641Z,99016.56
2022-08-03T02:32:06.056Z,99021.28
2022-08-03T02:34:55.288Z,99023.16
2022-08-03T02:37:49.779Z,99018.97
2022-08-03T02:40:36.179Z,99021.38
2022-08-03T02:43:23.634Z,99017.16
2022-08-03T02:46:10.339Z,99021.09
2022-08-03T02:48:56.189Z,99021.88
2022-08-03T02:51:43.150Z,99014.34
2022-08-03T02:54:30.097Z,99022.41
2022-08-03T02:57:16.661Z,99021.09
2022-08-03T03:00:02.349Z,99021.59
2022-08-03T03:02:48.284Z,99007.53
2022-08-03T03:05:55.200Z,99015.88
2022-08-03T03:08:41.405Z,99014.56
2022-08-03T03:11:27.873Z,99019.97
2022-08-03T03:14:14.117Z,99011.06
2022-08-03T03:17:01.149Z,99019.34
2022-08-03T03:19:49.033Z,99019.03
2022-08-03T03:22:34.846Z,99020.81
2022-08-03T03:25:21.174Z,99023.38
2022-08-03T03:28:07.406Z,99022.56
2022-08-03T03:30:52.666Z,99024.34
2022-08-03T03:33:39.001Z,99018.31
2022-08-03T03:36:23.670Z,99023.19
2022-08-03T03:39:15.949Z,99016.13
2022-08-03T03:42:02.045Z,99018.41
2022-08-03T03:44:47.284Z,99022.25
2022-08-03T03:47:33.810Z,99024.50
2022-08-03T03:50:20.009Z,99028.88
2022-08-03T03:53:04.948Z,99026.78
2022-08-03T03:55:59.221Z,99031.16
2022-08-03T03:58:48.159Z,99028.53
2022-08-03T04:01:33.096Z,99032.16
2022-08-03T04:04:36.511Z,99038.84
2022-08-03T04:07:42.355Z,99044.16
2022-08-03T04:10:49.616Z,99037.28
2022-08-03T04:13:41.935Z,99033.63
2022-08-03T04:16:31.796Z,99041.66
2022-08-03T04:19:30.394Z,99032.91
2022-08-03T04:22:19.078Z,99027.41
2022-08-03T04:25:08.488Z,99036.22
2022-08-03T04:28:30.062Z,99033.28
2022-08-03T04:31:04.276Z,99044.84
2022-08-03T04:33:52.389Z,99045.78
2022-08-03T04:36:44.572Z,99048.19
2022-08-03T04:39:31.143Z,99049.66
2022-08-03T04:42:20.246Z,99046.94
2022-08-03T04:45:06.379Z,99041.28
2022-08-03T04:47:52.039Z,99050.22
2022-08-03T04:50:37.209Z,99038.88
2022-08-03T04:53:22.067Z,99048.97
2022-08-03T04:56:08.206Z,99048.81
2022-08-03T04:58:53.251Z,99044.75
2022-08-03T05:01:40.687Z,99036.25
2022-08-03T05:04:25.875Z,99054.69
2022-08-03T05:07:11.580Z,99050.09
2022-08-03T05:10:01.775Z,99042.75
2022-08-03T05:12:50.952Z,99045.34
2022-08-03T05:15:35.826Z,99047.41
2022-08-03T05:18:28.202Z,99048.19
2022-08-03T05:21:16.316Z,99064.13
2022-08-03T05:24:01.331Z,99058.56
2022-08-03T05:26:46.159Z,99068.28
2022-08-03T05:29:31.677Z,99068.75
2022-08-03T05:32:17.361Z,99067.47
2022-08-03T05:35:57.475Z,99073.28
2022-08-03T05:38:07.116Z,99087.25
2022-08-03T05:40:57.332Z,99088.41
2022-08-03T05:43:59.646Z,99082.72
2022-08-03T05:46:44.424Z,99091.31
2022-08-03T05:49:29.627Z,99081.84
2022-08-03T05:52:17.543Z,99085.50
2022-08-03T05:55:05.910Z,99091.13
2022-08-03T05:57:50.557Z,99098.41
2022-08-03T06:00:35.453Z,99097.81
2022-08-03T06:03:20.415Z,99090.47
2022-08-03T06:06:07.253Z,99100.91
2022-08-03T06:08:52.466Z,99102.41
2022-08-03T06:11:37.404Z,99110.16
2022-08-03T06:14:22.351Z,99109.00
2022-08-03T06:17:07.565Z,99110.81
2022-08-03T06:19:53.307Z,99107.06
2022-08-03T06:22:41.772Z,99106.31
2022-08-03T06:25:36.031Z,99108.09
2022-08-03T06:28:52.192Z,99110.22
2022-08-03T06:31:33.158Z,99116.31
2022-08-03T06:34:33.361Z,99120.38
2022-08-03T06:37:20.220Z,99116.22
2022-08-03T06:40:05.725Z,99107.41
2022-08-03T06:42:50.610Z,99105.72
2022-08-03T06:45:35.441Z,99114.16
2022-08-03T06:48:20.450Z,99118.41
2022-08-03T06:51:05.483Z,99119.16
2022-08-03T06:53:51.543Z,99109.81
2022-08-03T06:56:36.667Z,99111.72
2022-08-03T07:00:06.059Z,99118.47
2022-08-03T07:02:28.503Z,99117.56
2022-08-03T07:05:13.889Z,99117.53
2022-08-03T07:08:01.203Z,99111.03
2022-08-03T07:10:45.920Z,99120.91
2022-08-03T07:13:30.729Z,99113.19
2022-08-03T07:16:16.160Z,99123.72
2022-08-03T07:19:00.674Z,99115.25
2022-08-03T07:21:46.586Z,99117.16
2022-08-03T07:24:31.603Z,99112.69
2022-08-03T07:27:16.591Z,99119.03
2022-08-03T07:30:02.027Z,99111.72
2022-08-03T07:32:50.682Z,99125.91
2022-08-03T07:35:35.623Z,99116.91
2022-08-03T07:38:21.207Z,99134.16
2022-08-03T07:41:06.090Z,99121.84
2022-08-03T07:43:51.540Z,99134.81
2022-08-03T07:46:36.270Z,99136.81
2022-08-03T07:49:21.139Z,99136.28
2022-08-03T07:52:24.590Z,99142.44
2022-08-03T07:55:13.870Z,99142.19
2022-08-03T07:58:07.091Z,99142.72
2022-08-03T08:00:52.388Z,99151.66
2022-08-03T08:03:52.899Z,99144.94
2022-08-03T08:06:38.409Z,99144.28
2022-08-03T08:09:24.958Z,99142.25
2022-08-03T08:12:15.353Z,99151.69
2022-08-03T08:15:01.434Z,99154.03
2022-08-03T08:17:46.380Z,99157.69
2022-08-03T08:20:38.324Z,99152.13
2022-08-03T08:23:37.923Z,99161.94
2022-08-03T08:26:28.172Z,99160.44
2022-08-03T08:29:12.952Z,99148.25
2022-08-03T08:31:58.015Z,99156.06
2022-08-03T08:34:43.052Z,99158.69
2022-08-03T08:37:28.151Z,99172.53
2022-08-03T08:40:13.320Z,99162.50
2022-08-03T08:42:59.170Z,99160.47
2022-08-03T08:45:44.966Z,99165.94
2022-08-03T08:48:30.547Z,99163.81
2022-08-03T08:51:18.739Z,99173.69
2022-08-03T08:54:06.900Z,99167.16
2022-08-03T08:56:53.104Z,99177.19
2022-08-03T08:59:47.915Z,99176.84
2022-08-03T09:02:34.473Z,99179.03
2022-08-03T09:05:27.818Z,99174.31
2022-08-03T09:08:25.471Z,99181.63
2022-08-03T09:11:12.085Z,99178.59
2022-08-03T09:13:58.224Z,99184.31
2022-08-03T09:17:00.430Z,99184.28
2022-08-03T09:20:05.782Z,99174.19
2022-08-03T09:23:00.892Z,99184.03
2022-08-03T09:25:45.940Z,99181.31
2022-08-03T09:29:01.318Z,99190.59
2022-08-03T09:31:46.276Z,99183.19
2022-08-03T09:34:32.249Z,99179.44
2022-08-03T09:37:19.252Z,99182.47
2022-08-03T09:40:06.228Z,99189.22
2022-08-03T09:42:57.334Z,99181.03
2022-08-03T09:45:43.745Z,99182.44
2022-08-03T09:48:30.945Z,99182.84
2022-08-03T09:51:32.602Z,99173.09
2022-08-03T09:54:29.744Z,99172.03
2022-08-03T09:57:25.921Z,99174.19
2022-08-03T10:00:13.192Z,99172.63
2022-08-03T10:03:05.141Z,99174.03
2022-08-03T10:05:50.276Z,99178.22
2022-08-03T10:08:35.450Z,99172.78
2022-08-03T10:11:40.408Z,99171.81
2022-08-03T10:14:31.125Z,99165.63
2022-08-03T10:17:16.492Z,99171.25
2022-08-03T10:20:03.100Z,99170.94
2022-08-03T10:22:48.267Z,99164.19
2022-08-03T10:25:35.077Z,99165.22
2022-08-03T10:28:21.181Z,99168.63
2022-08-03T10:31:07.492Z,99170.91
2022-08-03T10:33:57.491Z,99173.75
2022-08-03T10:36:44.435Z,99160.66
2022-08-03T10:39:30.390Z,99174.66
2022-08-03T10:42:15.405Z,99160.72
2022-08-03T10:45:09.108Z,99169.13
2022-08-03T10:47:55.598Z,99164.66
2022-08-03T10:50:42.744Z,99165.91
2022-08-03T10:53:54.686Z,99165.06
2022-08-03T10:57:03.399Z,99170.41
2022-08-03T10:59:59.878Z,99167.66
2022-08-03T11:03:05.674Z,99171.00
2022-08-03T11:05:52.946Z,99166.09
2022-08-03T11:08:37.832Z,99170.72
2022-08-03T11:11:27.835Z,99166.13
2022-08-03T11:14:20.854Z,99156.84
2022-08-03T11:17:07.853Z,99159.00
2022-08-03T11:19:59.432Z,99151.59
2022-08-03T11:22:50.205Z,99157.47
2022-08-03T11:26:14.605Z,99162.81
2022-08-03T11:29:38.329Z,99155.53
2022-08-03T11:32:46.857Z,99157.84
2022-08-03T11:35:44.816Z,99149.91
2022-08-03T11:38:30.004Z,99143.91
2022-08-03T11:41:32.960Z,99148.41
2022-08-03T11:44:40.381Z,99140.75
2022-08-03T11:47:29.503Z,99137.44
2022-08-03T11:50:14.246Z,99139.19
2022-08-03T11:52:59.109Z,99130.19
2022-08-03T11:55:49.152Z,99139.78
2022-08-03T11:59:01.932Z,99134.78
2022-08-03T12:01:39.785Z,99133.06
2022-08-03T12:04:24.635Z,99135.81
2022-08-03T12:07:10.013Z,99125.00
2022-08-03T12:10:11.861Z,99116.81
2022-08-03T12:12:58.662Z,99118.53
2022-08-03T12:15:49.571Z,99120.06
2022-08-03T12:18:34.919Z,99127.00
2022-08-03T12:21:23.727Z,99116.56
2022-08-03T12:24:08.909Z,99111.03
2022-08-03T12:26:58.372Z,99114.16
2022-08-03T12:29:58.582Z,99122.13
2022-08-03T12:32:44.376Z,99114.81
2022-08-03T12:35:29.220Z,99114.75
2022-08-03T12:38:20.191Z,99115.75
2022-08-03T12:41:13.102Z,99114.28
2022-08-03T12:43:58.514Z,99116.31
2022-08-03T12:46:47.719Z,99106.97
2022-08-03T12:49:47.200Z,99111.00
2022-08-03T12:52:42.665Z,99100.66
2022-08-03T12:55:33.065Z,99100.22
2022-08-03T12:58:38.324Z,99108.75
2022-08-03T13:01:23.877Z,99106.09
2022-08-03T13:04:14.343Z,99105.97
2022-08-03T13:07:04.389Z,99101.25
2022-08-03T13:09:54.373Z,99091.53
2022-08-03T13:12:47.753Z,99093.03
2022-08-03T13:15:38.551Z,99094.69
2022-08-03T13:18:32.796Z,99091.97
2022-08-03T13:21:20.332Z,99095.44
2022-08-03T13:24:05.333Z,99093.88
2022-08-03T13:26:50.929Z,99097.84
2022-08-03T13:29:35.720Z,99103.19
2022-08-03T13:32:21.898Z,99104.66
2022-08-03T13:35:08.741Z,99102.25
2022-08-03T13:37:53.693Z,99104.13
2022-08-03T13:40:41.710Z,99110.31
2022-08-03T13:43:26.662Z,99107.72
2022-08-03T13:46:11.527Z,99111.84
2022-08-03T13:48:56.604Z,99114.94
2022-08-03T13:51:41.519Z,99107.97
2022-08-03T13:54:26.722Z,99120.88
2022-08-03T13:58:05.235Z,99117.66
2022-08-03T14:00:27.164Z,99110.06
2022-08-03T14:03:14.473Z,99111.31
2022-08-03T14:05:59.464Z,99118.25
2022-08-03T14:08:44.563Z,99119.69
2022-08-03T14:12:07.132Z,99118.69
2022-08-03T14:14:34.498Z,99112.09
2022-08-03T14:17:20.065Z,99115.31
2022-08-03T14:20:09.485Z,99111.66
2022-08-03T14:23:14.530Z,99111.56
2022-08-03T14:25:59.814Z,99111.56
2022-08-03T14:28:44.815Z,99112.88
2022-08-03T14:32:10.088Z,99104.41
2022-08-03T14:34:34.918Z,99112.31
2022-08-03T14:37:20.150Z,99112.03
2022-08-03T14:40:05.856Z,99117.91
2022-08-03T14:42:51.522Z,99106.50
2022-08-03T14:45:35.985Z,99117.31
2022-08-03T14:50:31.075Z,99116.44
2022-08-03T14:51:26.770Z,99111.75
2022-08-03T14:54:16.816Z,99116.72
2022-08-03T14:57:03.518Z,99120.84
2022-08-03T14:59:56.635Z,99125.16
2022-08-03T15:02:42.561Z,99121.03
2022-08-03T15:05:27.894Z,99133.03
2022-08-03T15:08:12.648Z,99130.31
2022-08-03T15:10:57.781Z,99135.03
2022-08-03T15:13:42.534Z,99129.22
2022-08-03T15:16:30.578Z,99138.22
2022-08-03T15:20:01.594Z,99130.19
2022-08-03T15:22:24.863Z,99136.56
2022-08-03T15:26:28.425Z,99136.91
2022-08-03T15:28:15.631Z,99136.25
2022-08-03T15:31:01.176Z,99136.38
2022-08-03T15:33:46.261Z,99125.13
2022-08-03T15:36:32.318Z,99133.44
2022-08-03T15:39:17.410Z,99131.69
2022-08-03T15:42:02.015Z,99144.22
2022-08-03T15:44:47.616Z,99136.03
2022-08-03T15:47:32.830Z,99138.78
2022-08-03T15:50:17.668Z,99139.53
2022-08-03T15:53:03.716Z,99135.00
2022-08-03T15:55:48.671Z,99134.50
2022-08-03T15:59:03.266Z,99131.25
2022-08-03T16:01:39.508Z,99131.53
2022-08-03T16:04:25.276Z,99129.03
2022-08-03T16:07:12.715Z,99122.09
2022-08-03T16:09:57.480Z,99126.19
2022-08-03T16:12:42.693Z,99126.94
2022-08-03T16:15:27.773Z,99126.34
2022-08-03T16:18:12.802Z,99123.41
2022-08-03T16:20:58.311Z,99121.75
2022-08-03T16:23:45.048Z,99120.81
2022-08-03T16:26:32.744Z,99125.25
2022-08-03T16:29:22.445Z,99126.59
2022-08-03T16:32:09.543Z,99123.81
2022-08-03T16:34:54.266Z,99124.50
2022-08-03T16:37:39.791Z,99123.16
2022-08-03T16:40:25.907Z,99125.09
2022-08-03T16:43:18.609Z,99125.13
2022-08-03T16:46:04.165Z,99131.78
2022-08-03T16:48:49.143Z,99132.88
2022-08-03T16:51:50.602Z,99135.53
2022-08-03T16:54:35.940Z,99133.50
2022-08-03T16:57:56.407Z,99141.25
2022-08-03T17:00:34.058Z,99126.41
2022-08-03T17:03:26.803Z,99131.38
2022-08-03T17:06:12.715Z,99135.06
2022-08-03T17:08:58.748Z,99145.78
2022-08-03T17:11:47.216Z,99145.16
2022-08-03T17:14:32.496Z,99144.06
2022-08-03T17:17:30.546Z,99156.41
2022-08-03T17:20:33.348Z,99159.16
2022-08-03T17:23:55.292Z,99159.44
2022-08-03T17:26:43.473Z,99161.91
2022-08-03T17:29:34.388Z,99167.25
2022-08-03T17:32:21.775Z,99164.72
2022-08-03T17:35:07.822Z,99160.03
2022-08-03T17:37:57.846Z,99168.25
2022-08-03T17:40:49.942Z,99172.53
2022-08-03T17:44:13.510Z,99169.38
2022-08-03T17:46:41.588Z,99194.66
2022-08-03T17:49:28.076Z,99188.63
2022-08-03T17:52:35.888Z,99196.97
2022-08-03T17:55:56.319Z,99188.50
2022-08-03T17:58:57.882Z,99192.72
2022-08-03T18:02:14.459Z,99200.47
2022-08-03T18:05:16.569Z,99194.34
2022-08-03T18:08:05.860Z,99195.88
2022-08-03T18:11:15.771Z,99203.47
2022-08-03T18:14:16.363Z,99195.13
2022-08-03T18:17:05.996Z,99204.34
2022-08-03T18:20:02.660Z,99194.94
2022-08-03T18:22:50.452Z,99206.69
2022-08-03T18:25:50.045Z,99190.47
2022-08-03T18:28:38.756Z,99203.09
2022-08-03T18:31:59.753Z,99196.59
2022-08-03T18:34:32.513Z,99201.84
2022-08-03T18:37:25.145Z,99195.53
2022-08-03T18:40:10.818Z,99191.66
2022-08-03T18:42:55.645Z,99192.72
2022-08-03T18:45:57.401Z,99189.63
2022-08-03T18:48:48.638Z,99194.09
2022-08-03T18:51:43.237Z,99183.31
2022-08-03T18:55:19.876Z,99184.09
2022-08-03T18:58:15.695Z,99193.81
2022-08-03T19:04:45.936Z,99191.91
2022-08-03T19:07:36.110Z,99197.75
2022-08-03T19:10:25.736Z,99192.81
2022-08-03T19:13:30.952Z,99194.34
2022-08-03T19:16:30.182Z,99200.69
2022-08-03T19:19:17.922Z,99201.75
2022-08-03T19:22:05.705Z,99200.19
2022-08-03T19:24:57.282Z,99190.00
2022-08-03T19:27:48.130Z,99186.91
2022-08-03T19:30:39.554Z,99191.19
2022-08-03T19:33:29.838Z,99194.13
2022-08-03T19:36:15.334Z,99185.00
2022-08-03T19:39:02.549Z,99184.69
2022-08-03T19:41:51.476Z,99193.66
2022-08-03T19:44:42.380Z,99190.25
2022-08-03T19:47:50.853Z,99190.84
2022-08-03T19:50:36.298Z,99178.00
2022-08-03T19:53:35.372Z,99182.50
2022-08-03T19:56:23.516Z,99175.22
2022-08-03T19:59:13.236Z,99167.47
2022-08-03T20:01:58.872Z,99171.72
2022-08-03T20:04:44.159Z,99167.69
2022-08-03T20:07:32.178Z,99166.53
2022-08-03T20:10:17.338Z,99171.13
2022-08-03T20:13:03.334Z,99169.22
2022-08-03T20:15:48.478Z,99179.59
2022-08-03T20:18:39.502Z,99173.50
2022-08-03T20:21:26.720Z,99170.50
2022-08-03T20:24:27.476Z,99171.19
2022-08-03T20:27:19.867Z,99168.31
2022-08-03T20:30:07.362Z,99182.63
2022-08-03T20:32:52.591Z,99185.53
2022-08-03T20:35:37.700Z,99187.34
2022-08-03T20:38:27.278Z,99183.38
2022-08-03T20:41:12.333Z,99181.78
2022-08-03T20:43:56.984Z,99184.28
2022-08-03T20:46:56.341Z,99185.53
2022-08-03T20:49:46.388Z,99176.78
2022-08-03T20:52:32.654Z,99177.31
2022-08-03T20:55:20.152Z,99176.63
2022-08-03T20:58:06.291Z,99183.00
2022-08-03T21:00:51.590Z,99182.00
2022-08-03T21:03:40.791Z,99185.25
2022-08-03T21:06:53.667Z,99195.22
2022-08-03T21:09:49.427Z,99192.13
2022-08-03T21:13:10.710Z,99186.53
2022-08-03T21:13:14.870Z,99198.69
2022-08-03T21:16:13.000Z,99194.09
2022-08-03T21:19:02.779Z,99193.81
2022-08-03T21:21:49.612Z,99196.41
2022-08-03T21:24:39.971Z,99197.69
2022-08-03T21:27:25.826Z,99198.97
2022-08-03T21:30:11.645Z,99195.31
2022-08-03T21:32:57.701Z,99190.63
2022-08-03T21:35:46.356Z,99198.75
2022-08-03T21:38:32.136Z,99188.38
2022-08-03T21:41:17.016Z,99187.31
2022-08-03T21:44:02.755Z,99194.28
2022-08-03T21:46:52.352Z,99194.38
2022-08-03T21:49:51.720Z,99199.66
2022-08-03T21:52:49.109Z,99196.84
2022-08-03T21:55:42.363Z,99196.84
2022-08-03T21:58:32.048Z,99199.19
2022-08-03T22:01:21.330Z,99206.16
2022-08-03T22:04:06.963Z,99200.94
2022-08-03T22:06:52.253Z,99202.28
2022-08-03T22:09:37.353Z,99209.47
2022-08-03T22:12:24.166Z,99207.41
2022-08-03T22:15:11.829Z,99202.00
2022-08-03T22:17:58.502Z,99200.38
2022-08-03T22:23:57.682Z,99199.88
2022-08-03T22:27:02.555Z,99196.41
2022-08-03T22:29:48.741Z,99191.69
2022-08-03T22:32:33.551Z,99190.41
2022-08-03T22:35:20.674Z,99183.66
2022-08-03T22:38:07.824Z,99187.69
2022-08-03T22:40:54.310Z,99176.59
2022-08-03T22:43:40.372Z,99184.50
2022-08-03T22:46:26.926Z,99180.38
2022-08-03T22:49:12.937Z,99178.88
2022-08-03T22:51:58.668Z,99180.16
2022-08-03T22:54:45.782Z,99180.66
2022-08-03T22:57:34.702Z,99179.28
2022-08-03T23:00:19.246Z,99171.06
2022-08-03T23:03:05.699Z,99169.72
2022-08-03T23:06:00.278Z,99178.28
2022-08-03T23:08:49.773Z,99171.22
2022-08-03T23:11:45.270Z,99169.97
2022-08-03T23:14:37.894Z,99165.59
2022-08-03T23:17:23.745Z,99166.41
2022-08-03T23:20:09.570Z,99162.91
2022-08-03T23:22:56.911Z,99169.78
2022-08-03T23:25:42.424Z,99164.19
2022-08-03T23:28:30.523Z,99171.06
2022-08-03T23:31:17.869Z,99173.78
2022-08-03T23:34:21.699Z,99177.56
2022-08-03T23:37:06.232Z,99176.09
2022-08-03T23:39:52.210Z,99174.28
2022-08-03T23:42:38.388Z,99178.81
2022-08-03T23:45:27.001Z,99178.34
2022-08-03T23:48:11.974Z,99175.53
2022-08-03T23:50:59.513Z,99178.97
2022-08-03T23:53:53.526Z,99173.81
2022-08-03T23:56:47.114Z,99179.31
2022-08-03T23:59:55.394Z,99184.34
